sensor_id;sensor_type;location;lat;lon;timestamp;pressure;altitude;pressure_sealevel;temperature;humidity
41862;BME280;27537;57.134;-2.136;2023-05-01T00:02:02;100548.56;;;10.44;100.00
41862;BME280;27537;57.134;-2.136;2023-05-01T00:04:28;100552.69;;;10.52;100.00
41862;BME280;27537;57.134;-2.136;2023-05-01T00:06:55;100494.94;;;10.11;100.00
41862;BME280;27537;57.134;-2.136;2023-05-01T00:09:26;100569.03;;;10.57;100.00
41862;BME280;27537;57.134;-2.136;2023-05-01T00:11:53;100541.78;;;10.40;100.00
41862;BME280;27537;57.134;-2.136;2023-05-01T00:14:19;100538.84;;;10.48;100.00
41862;BME280;27537;57.134;-2.136;2023-05-01T00:16:46;100559.94;;;10.66;100.00
41862;BME280;27537;57.134;-2.136;2023-05-01T00:19:13;100535.44;;;10.46;100.00
41862;BME280;27537;57.134;-2.136;2023-05-01T00:21:45;100576.72;;;10.61;100.00
41862;BME280;27537;57.134;-2.136;2023-05-01T00:24:16;100514.72;;;10.18;100.00
41862;BME280;27537;57.134;-2.136;2023-05-01T00:26:43;100531.63;;;10.09;100.00
41862;BME280;27537;57.134;-2.136;2023-05-01T00:29:10;100541.03;;;10.15;100.00
41862;BME280;27537;57.134;-2.136;2023-05-01T00:31:37;100529.56;;;9.95;100.00
41862;BME280;27537;57.134;-2.136;2023-05-01T00:34:04;100548.03;;;9.91;100.00
41862;BME280;27537;57.134;-2.136;2023-05-01T00:36:31;100524.84;;;9.81;100.00
41862;BME280;27537;57.134;-2.136;2023-05-01T00:38:58;100540.28;;;9.87;100.00
41862;BME280;27537;57.134;-2.136;2023-05-01T00:41:25;100541.31;;;9.83;100.00
41862;BME280;27537;57.134;-2.136;2023-05-01T00:43:52;100572.88;;;10.02;100.00
41862;BME280;27537;57.134;-2.136;2023-05-01T00:46:19;100522.59;;;9.72;100.00
41862;BME280;27537;57.134;-2.136;2023-05-01T00:48:46;100531.22;;;9.74;100.00
41862;BME280;27537;57.134;-2.136;2023-05-01T00:51:13;100504.00;;;9.56;100.00
41862;BME280;27537;57.134;-2.136;2023-05-01T00:53:42;100546.84;;;9.76;100.00
41862;BME280;27537;57.134;-2.136;2023-05-01T00:56:10;100527.25;;;9.64;100.00
41862;BME280;27537;57.134;-2.136;2023-05-01T00:58:37;100572.75;;;10.05;100.00
41862;BME280;27537;57.134;-2.136;2023-05-01T01:01:04;100551.66;;;10.10;100.00
41862;BME280;27537;57.134;-2.136;2023-05-01T01:03:31;100532.13;;;10.19;100.00
41862;BME280;27537;57.134;-2.136;2023-05-01T01:06:08;100547.94;;;10.39;100.00
41862;BME280;27537;57.134;-2.136;2023-05-01T01:08:41;100530.19;;;10.46;100.00
41862;BME280;27537;57.134;-2.136;2023-05-01T01:14:06;100533.38;;;10.54;100.00
41862;BME280;27537;57.134;-2.136;2023-05-01T01:17:28;100572.25;;;10.86;100.00
41862;BME280;27537;57.134;-2.136;2023-05-01T01:20:07;100579.97;;;10.89;100.00
41862;BME280;27537;57.134;-2.136;2023-05-01T01:22:42;100524.53;;;10.57;100.00
41862;BME280;27537;57.134;-2.136;2023-05-01T01:25:54;100576.97;;;10.98;100.00
41862;BME280;27537;57.134;-2.136;2023-05-01T01:31:13;100570.81;;;10.99;100.00
41862;BME280;27537;57.134;-2.136;2023-05-01T01:39:26;100544.47;;;10.81;100.00
41862;BME280;27537;57.134;-2.136;2023-05-01T01:41:56;100539.09;;;10.85;100.00
41862;BME280;27537;57.134;-2.136;2023-05-01T01:44:33;100531.63;;;10.75;100.00
41862;BME280;27537;57.134;-2.136;2023-05-01T01:47:05;100546.91;;;10.86;100.00
41862;BME280;27537;57.134;-2.136;2023-05-01T01:49:36;100536.16;;;10.72;100.00
41862;BME280;27537;57.134;-2.136;2023-05-01T01:52:04;100540.47;;;10.73;100.00
41862;BME280;27537;57.134;-2.136;2023-05-01T01:54:37;100525.84;;;10.47;100.00
41862;BME280;27537;57.134;-2.136;2023-05-01T01:57:07;100545.00;;;10.47;100.00
41862;BME280;27537;57.134;-2.136;2023-05-01T01:59:35;100492.56;;;10.04;100.00
41862;BME280;27537;57.134;-2.136;2023-05-01T02:02:02;100521.66;;;10.19;100.00
41862;BME280;27537;57.134;-2.136;2023-05-01T02:04:31;100523.44;;;10.18;100.00
41862;BME280;27537;57.134;-2.136;2023-05-01T02:07:00;100475.84;;;9.86;100.00
41862;BME280;27537;57.134;-2.136;2023-05-01T02:09:28;100540.72;;;10.22;100.00
41862;BME280;27537;57.134;-2.136;2023-05-01T02:11:56;100490.69;;;10.08;100.00
41862;BME280;27537;57.134;-2.136;2023-05-01T02:14:25;100498.22;;;10.16;100.00
41862;BME280;27537;57.134;-2.136;2023-05-01T02:16:52;100508.41;;;10.23;100.00
41862;BME280;27537;57.134;-2.136;2023-05-01T02:19:21;100505.84;;;10.22;100.00
41862;BME280;27537;57.134;-2.136;2023-05-01T02:21:49;100488.88;;;10.10;100.00
41862;BME280;27537;57.134;-2.136;2023-05-01T02:24:18;100503.22;;;10.22;100.00
41862;BME280;27537;57.134;-2.136;2023-05-01T02:26:51;100538.97;;;10.45;100.00
41862;BME280;27537;57.134;-2.136;2023-05-01T02:29:19;100535.59;;;10.43;100.00
41862;BME280;27537;57.134;-2.136;2023-05-01T02:31:46;100536.09;;;10.51;100.00
41862;BME280;27537;57.134;-2.136;2023-05-01T02:34:13;100515.47;;;10.43;100.00
41862;BME280;27537;57.134;-2.136;2023-05-01T02:36:40;100501.66;;;10.40;100.00
41862;BME280;27537;57.134;-2.136;2023-05-01T02:39:07;100534.28;;;10.53;100.00
41862;BME280;27537;57.134;-2.136;2023-05-01T02:41:34;100523.94;;;10.50;100.00
41862;BME280;27537;57.134;-2.136;2023-05-01T02:44:03;100491.78;;;10.24;100.00
41862;BME280;27537;57.134;-2.136;2023-05-01T02:46:35;100529.91;;;10.54;100.00
41862;BME280;27537;57.134;-2.136;2023-05-01T02:49:03;100473.66;;;10.20;100.00
41862;BME280;27537;57.134;-2.136;2023-05-01T02:51:31;100518.03;;;10.45;100.00
41862;BME280;27537;57.134;-2.136;2023-05-01T02:54:00;100487.28;;;10.28;100.00
41862;BME280;27537;57.134;-2.136;2023-05-01T02:56:27;100478.97;;;10.18;100.00
41862;BME280;27537;57.134;-2.136;2023-05-01T02:58:54;100488.59;;;10.16;100.00
41862;BME280;27537;57.134;-2.136;2023-05-01T03:01:22;100519.00;;;10.42;100.00
41862;BME280;27537;57.134;-2.136;2023-05-01T03:03:49;100529.63;;;10.39;100.00
41862;BME280;27537;57.134;-2.136;2023-05-01T03:06:15;100506.56;;;10.25;100.00
41862;BME280;27537;57.134;-2.136;2023-05-01T03:08:42;100525.16;;;10.41;100.00
41862;BME280;27537;57.134;-2.136;2023-05-01T03:11:09;100502.13;;;10.27;100.00
41862;BME280;27537;57.134;-2.136;2023-05-01T03:13:36;100468.94;;;10.07;100.00
41862;BME280;27537;57.134;-2.136;2023-05-01T03:16:03;100538.94;;;10.47;100.00
41862;BME280;27537;57.134;-2.136;2023-05-01T03:18:30;100541.16;;;10.56;100.00
41862;BME280;27537;57.134;-2.136;2023-05-01T03:20:56;100505.59;;;10.28;100.00
41862;BME280;27537;57.134;-2.136;2023-05-01T03:23:23;100494.41;;;10.24;100.00
41862;BME280;27537;57.134;-2.136;2023-05-01T03:25:50;100521.44;;;10.47;100.00
41862;BME280;27537;57.134;-2.136;2023-05-01T03:28:17;100512.66;;;10.48;100.00
41862;BME280;27537;57.134;-2.136;2023-05-01T03:30:44;100515.81;;;10.56;100.00
41862;BME280;27537;57.134;-2.136;2023-05-01T03:33:11;100508.47;;;10.44;100.00
41862;BME280;27537;57.134;-2.136;2023-05-01T03:35:37;100492.31;;;10.34;100.00
41862;BME280;27537;57.134;-2.136;2023-05-01T03:38:04;100520.00;;;10.40;100.00
41862;BME280;27537;57.134;-2.136;2023-05-01T03:40:31;100465.69;;;10.01;100.00
41862;BME280;27537;57.134;-2.136;2023-05-01T03:42:58;100488.03;;;10.10;100.00
41862;BME280;27537;57.134;-2.136;2023-05-01T03:45:24;100499.28;;;10.12;100.00
41862;BME280;27537;57.134;-2.136;2023-05-01T03:47:51;100513.69;;;10.22;100.00
41862;BME280;27537;57.134;-2.136;2023-05-01T03:50:18;100531.88;;;10.25;100.00
41862;BME280;27537;57.134;-2.136;2023-05-01T03:52:45;100481.88;;;9.88;100.00
41862;BME280;27537;57.134;-2.136;2023-05-01T03:55:11;100462.56;;;9.69;100.00
41862;BME280;27537;57.134;-2.136;2023-05-01T03:57:38;100476.03;;;9.58;100.00
41862;BME280;27537;57.134;-2.136;2023-05-01T04:00:06;100500.16;;;9.65;100.00
41862;BME280;27537;57.134;-2.136;2023-05-01T04:02:33;100493.38;;;9.37;100.00
41862;BME280;27537;57.134;-2.136;2023-05-01T04:04:59;100465.88;;;9.27;100.00
41862;BME280;27537;57.134;-2.136;2023-05-01T04:07:26;100507.56;;;9.54;100.00
41862;BME280;27537;57.134;-2.136;2023-05-01T04:09:53;100474.38;;;9.32;100.00
41862;BME280;27537;57.134;-2.136;2023-05-01T04:12:20;100540.88;;;9.72;100.00
41862;BME280;27537;57.134;-2.136;2023-05-01T04:14:47;100519.56;;;9.59;100.00
41862;BME280;27537;57.134;-2.136;2023-05-01T04:17:14;100484.34;;;9.46;100.00
41862;BME280;27537;57.134;-2.136;2023-05-01T04:19:40;100489.53;;;9.47;100.00
41862;BME280;27537;57.134;-2.136;2023-05-01T04:22:07;100484.28;;;9.47;100.00
41862;BME280;27537;57.134;-2.136;2023-05-01T04:24:34;100525.19;;;9.72;100.00
41862;BME280;27537;57.134;-2.136;2023-05-01T04:27:01;100514.22;;;9.62;100.00
41862;BME280;27537;57.134;-2.136;2023-05-01T04:29:28;100453.44;;;9.34;100.00
41862;BME280;27537;57.134;-2.136;2023-05-01T04:31:55;100517.41;;;9.71;100.00
41862;BME280;27537;57.134;-2.136;2023-05-01T04:34:22;100489.97;;;9.59;100.00
41862;BME280;27537;57.134;-2.136;2023-05-01T04:36:49;100504.59;;;9.63;100.00
41862;BME280;27537;57.134;-2.136;2023-05-01T04:39:17;100454.56;;;9.26;100.00
41862;BME280;27537;57.134;-2.136;2023-05-01T04:41:44;100489.56;;;9.46;100.00
41862;BME280;27537;57.134;-2.136;2023-05-01T04:44:11;100479.38;;;9.38;100.00
41862;BME280;27537;57.134;-2.136;2023-05-01T04:46:38;100498.16;;;9.49;100.00
41862;BME280;27537;57.134;-2.136;2023-05-01T04:49:04;100521.16;;;9.63;100.00
41862;BME280;27537;57.134;-2.136;2023-05-01T04:51:31;100510.22;;;9.52;100.00
41862;BME280;27537;57.134;-2.136;2023-05-01T04:53:58;100496.03;;;9.36;100.00
41862;BME280;27537;57.134;-2.136;2023-05-01T04:56:25;100482.34;;;9.29;100.00
41862;BME280;27537;57.134;-2.136;2023-05-01T04:58:52;100519.00;;;9.51;100.00
41862;BME280;27537;57.134;-2.136;2023-05-01T05:01:19;100541.34;;;9.60;100.00
41862;BME280;27537;57.134;-2.136;2023-05-01T05:03:45;100521.09;;;9.65;100.00
41862;BME280;27537;57.134;-2.136;2023-05-01T05:06:15;100528.94;;;9.88;100.00
41862;BME280;27537;57.134;-2.136;2023-05-01T05:08:42;100501.44;;;10.00;100.00
41862;BME280;27537;57.134;-2.136;2023-05-01T05:11:09;100519.78;;;10.22;100.00
41862;BME280;27537;57.134;-2.136;2023-05-01T05:13:36;100502.50;;;10.18;100.00
41862;BME280;27537;57.134;-2.136;2023-05-01T05:16:03;100472.13;;;10.14;100.00
41862;BME280;27537;57.134;-2.136;2023-05-01T05:18:30;100535.72;;;10.60;100.00
41862;BME280;27537;57.134;-2.136;2023-05-01T05:20:56;100538.25;;;10.84;100.00
41862;BME280;27537;57.134;-2.136;2023-05-01T05:23:23;100493.72;;;10.63;100.00
41862;BME280;27537;57.134;-2.136;2023-05-01T05:25:50;100512.97;;;10.83;100.00
41862;BME280;27537;57.134;-2.136;2023-05-01T05:28:17;100546.66;;;11.13;100.00
41862;BME280;27537;57.134;-2.136;2023-05-01T05:30:43;100519.66;;;10.90;100.00
41862;BME280;27537;57.134;-2.136;2023-05-01T05:33:12;100527.94;;;11.01;100.00
41862;BME280;27537;57.134;-2.136;2023-05-01T05:35:38;100526.81;;;11.07;100.00
41862;BME280;27537;57.134;-2.136;2023-05-01T05:38:05;100549.75;;;11.23;100.00
41862;BME280;27537;57.134;-2.136;2023-05-01T05:40:32;100560.47;;;11.16;100.00
41862;BME280;27537;57.134;-2.136;2023-05-01T05:42:59;100529.09;;;11.15;100.00
41862;BME280;27537;57.134;-2.136;2023-05-01T05:45:25;100544.88;;;11.34;100.00
41862;BME280;27537;57.134;-2.136;2023-05-01T05:47:52;100592.47;;;11.64;100.00
41862;BME280;27537;57.134;-2.136;2023-05-01T05:50:19;100533.38;;;11.36;100.00
41862;BME280;27537;57.134;-2.136;2023-05-01T05:52:46;100489.66;;;11.18;100.00
41862;BME280;27537;57.134;-2.136;2023-05-01T05:55:12;100582.94;;;11.82;100.00
41862;BME280;27537;57.134;-2.136;2023-05-01T05:57:39;100594.44;;;11.59;100.00
41862;BME280;27537;57.134;-2.136;2023-05-01T06:00:07;100596.81;;;11.84;100.00
41862;BME280;27537;57.134;-2.136;2023-05-01T06:02:35;100591.06;;;11.96;100.00
41862;BME280;27537;57.134;-2.136;2023-05-01T06:05:02;100577.31;;;12.10;100.00
41862;BME280;27537;57.134;-2.136;2023-05-01T06:07:29;100610.13;;;12.57;100.00
41862;BME280;27537;57.134;-2.136;2023-05-01T06:09:56;100554.97;;;12.21;100.00
41862;BME280;27537;57.134;-2.136;2023-05-01T06:12:29;100587.97;;;12.63;100.00
41862;BME280;27537;57.134;-2.136;2023-05-01T06:14:57;100595.06;;;12.61;100.00
41862;BME280;27537;57.134;-2.136;2023-05-01T06:17:25;100555.03;;;12.00;100.00
41862;BME280;27537;57.134;-2.136;2023-05-01T06:19:51;100648.78;;;11.96;100.00
41862;BME280;27537;57.134;-2.136;2023-05-01T06:22:19;100618.66;;;11.25;100.00
41862;BME280;27537;57.134;-2.136;2023-05-01T06:24:46;100628.47;;;10.77;100.00
41862;BME280;27537;57.134;-2.136;2023-05-01T06:27:13;100597.41;;;10.45;100.00
41862;BME280;27537;57.134;-2.136;2023-05-01T06:29:39;100650.28;;;10.55;100.00
41862;BME280;27537;57.134;-2.136;2023-05-01T06:32:06;100681.63;;;11.01;100.00
41862;BME280;27537;57.134;-2.136;2023-05-01T06:34:33;100671.59;;;10.68;100.00
41862;BME280;27537;57.134;-2.136;2023-05-01T06:37:00;100614.38;;;10.35;100.00
41862;BME280;27537;57.134;-2.136;2023-05-01T06:39:26;100625.53;;;10.40;100.00
41862;BME280;27537;57.134;-2.136;2023-05-01T06:41:53;100667.69;;;10.78;100.00
41862;BME280;27537;57.134;-2.136;2023-05-01T06:44:20;100672.28;;;10.50;100.00
41862;BME280;27537;57.134;-2.136;2023-05-01T06:46:47;100681.97;;;10.48;100.00
41862;BME280;27537;57.134;-2.136;2023-05-01T06:49:14;100694.84;;;11.20;100.00
41862;BME280;27537;57.134;-2.136;2023-05-01T06:51:40;100684.53;;;11.99;100.00
41862;BME280;27537;57.134;-2.136;2023-05-01T06:54:07;100696.28;;;11.90;100.00
41862;BME280;27537;57.134;-2.136;2023-05-01T06:56:34;100693.75;;;11.87;100.00
41862;BME280;27537;57.134;-2.136;2023-05-01T06:59:01;100711.59;;;11.79;100.00
41862;BME280;27537;57.134;-2.136;2023-05-01T07:01:28;100675.84;;;11.15;100.00
41862;BME280;27537;57.134;-2.136;2023-05-01T07:03:56;100672.44;;;11.13;100.00
41862;BME280;27537;57.134;-2.136;2023-05-01T07:06:23;100683.41;;;10.78;100.00
41862;BME280;27537;57.134;-2.136;2023-05-01T07:08:49;100711.66;;;10.92;100.00
41862;BME280;27537;57.134;-2.136;2023-05-01T07:11:17;100757.50;;;11.26;100.00
41862;BME280;27537;57.134;-2.136;2023-05-01T07:13:44;100756.53;;;11.29;100.00
41862;BME280;27537;57.134;-2.136;2023-05-01T07:16:11;100738.59;;;10.96;100.00
41862;BME280;27537;57.134;-2.136;2023-05-01T07:18:37;100728.25;;;10.47;100.00
41862;BME280;27537;57.134;-2.136;2023-05-01T07:21:04;100680.69;;;10.36;100.00
41862;BME280;27537;57.134;-2.136;2023-05-01T07:23:31;100769.94;;;11.21;100.00
41862;BME280;27537;57.134;-2.136;2023-05-01T07:25:58;100729.03;;;11.17;100.00
41862;BME280;27537;57.134;-2.136;2023-05-01T07:28:25;100715.44;;;10.85;100.00
41862;BME280;27537;57.134;-2.136;2023-05-01T07:30:51;100786.50;;;11.44;100.00
41862;BME280;27537;57.134;-2.136;2023-05-01T07:33:18;100743.28;;;11.10;100.00
41862;BME280;27537;57.134;-2.136;2023-05-01T07:35:45;100756.41;;;11.32;100.00
41862;BME280;27537;57.134;-2.136;2023-05-01T07:38:12;100751.34;;;11.05;100.00
41862;BME280;27537;57.134;-2.136;2023-05-01T07:40:39;100795.28;;;10.98;100.00
41862;BME280;27537;57.134;-2.136;2023-05-01T07:43:06;100796.50;;;10.66;100.00
41862;BME280;27537;57.134;-2.136;2023-05-01T07:45:39;100745.66;;;10.23;100.00
41862;BME280;27537;57.134;-2.136;2023-05-01T07:48:06;100782.75;;;10.36;100.00
41862;BME280;27537;57.134;-2.136;2023-05-01T07:50:33;100811.47;;;10.62;100.00
41862;BME280;27537;57.134;-2.136;2023-05-01T07:53:00;100788.06;;;10.58;100.00
41862;BME280;27537;57.134;-2.136;2023-05-01T07:55:27;100797.09;;;10.24;100.00
41862;BME280;27537;57.134;-2.136;2023-05-01T07:57:54;100793.34;;;10.06;100.00
41862;BME280;27537;57.134;-2.136;2023-05-01T08:00:21;100825.72;;;10.02;100.00
41862;BME280;27537;57.134;-2.136;2023-05-01T08:02:48;100787.94;;;9.59;100.00
41862;BME280;27537;57.134;-2.136;2023-05-01T08:05:17;100800.00;;;9.89;100.00
41862;BME280;27537;57.134;-2.136;2023-05-01T08:07:43;100784.44;;;10.12;100.00
41862;BME280;27537;57.134;-2.136;2023-05-01T08:10:10;100809.06;;;10.31;100.00
41862;BME280;27537;57.134;-2.136;2023-05-01T08:12:37;100818.97;;;10.72;100.00
41862;BME280;27537;57.134;-2.136;2023-05-01T08:15:05;100805.47;;;10.59;100.00
41862;BME280;27537;57.134;-2.136;2023-05-01T08:17:33;100824.66;;;10.59;100.00
41862;BME280;27537;57.134;-2.136;2023-05-01T08:20:00;100806.47;;;10.55;100.00
41862;BME280;27537;57.134;-2.136;2023-05-01T08:22:27;100854.38;;;11.06;100.00
41862;BME280;27537;57.134;-2.136;2023-05-01T08:24:54;100817.75;;;11.04;100.00
41862;BME280;27537;57.134;-2.136;2023-05-01T08:27:21;100838.38;;;11.57;100.00
41862;BME280;27537;57.134;-2.136;2023-05-01T08:29:48;100852.09;;;11.86;100.00
41862;BME280;27537;57.134;-2.136;2023-05-01T08:32:17;100842.03;;;11.98;100.00
41862;BME280;27537;57.134;-2.136;2023-05-01T08:34:44;100849.56;;;11.40;100.00
41862;BME280;27537;57.134;-2.136;2023-05-01T08:37:11;100862.25;;;11.51;100.00
41862;BME280;27537;57.134;-2.136;2023-05-01T08:39:37;100835.88;;;11.10;100.00
41862;BME280;27537;57.134;-2.136;2023-05-01T08:42:04;100865.59;;;11.09;100.00
41862;BME280;27537;57.134;-2.136;2023-05-01T08:44:31;100863.94;;;11.30;100.00
41862;BME280;27537;57.134;-2.136;2023-05-01T08:47:09;100884.69;;;11.58;100.00
41862;BME280;27537;57.134;-2.136;2023-05-01T08:49:40;100869.84;;;12.02;100.00
41862;BME280;27537;57.134;-2.136;2023-05-01T08:52:09;100915.53;;;11.98;100.00
41862;BME280;27537;57.134;-2.136;2023-05-01T08:54:44;100895.31;;;11.77;100.00
41862;BME280;27537;57.134;-2.136;2023-05-01T08:57:12;100891.50;;;11.40;100.00
41862;BME280;27537;57.134;-2.136;2023-05-01T08:59:39;100887.25;;;11.60;100.00
41862;BME280;27537;57.134;-2.136;2023-05-01T09:02:08;100907.41;;;11.36;100.00
41862;BME280;27537;57.134;-2.136;2023-05-01T09:04:39;100918.84;;;11.10;100.00
41862;BME280;27537;57.134;-2.136;2023-05-01T09:07:07;100919.00;;;10.56;100.00
41862;BME280;27537;57.134;-2.136;2023-05-01T09:09:35;100923.88;;;10.42;100.00
41862;BME280;27537;57.134;-2.136;2023-05-01T09:14:41;100901.31;;;10.11;100.00
41862;BME280;27537;57.134;-2.136;2023-05-01T09:17:08;100933.53;;;10.13;100.00
41862;BME280;27537;57.134;-2.136;2023-05-01T09:19:35;100964.13;;;10.11;100.00
41862;BME280;27537;57.134;-2.136;2023-05-01T09:22:02;100935.06;;;9.92;100.00
41862;BME280;27537;57.134;-2.136;2023-05-01T09:24:28;100985.25;;;10.03;100.00
41862;BME280;27537;57.134;-2.136;2023-05-01T09:26:55;100965.81;;;9.84;100.00
41862;BME280;27537;57.134;-2.136;2023-05-01T09:29:40;100970.19;;;10.40;100.00
41862;BME280;27537;57.134;-2.136;2023-05-01T09:32:24;100941.75;;;10.27;100.00
41862;BME280;27537;57.134;-2.136;2023-05-01T09:34:55;100956.31;;;10.38;100.00
41862;BME280;27537;57.134;-2.136;2023-05-01T09:37:32;100936.78;;;10.20;100.00
41862;BME280;27537;57.134;-2.136;2023-05-01T09:40:13;100984.78;;;10.47;100.00
41862;BME280;27537;57.134;-2.136;2023-05-01T09:42:51;100966.03;;;10.59;100.00
41862;BME280;27537;57.134;-2.136;2023-05-01T09:45:18;100969.16;;;10.44;100.00
41862;BME280;27537;57.134;-2.136;2023-05-01T09:47:45;100993.31;;;10.25;100.00
41862;BME280;27537;57.134;-2.136;2023-05-01T09:50:30;100977.03;;;9.87;100.00
41862;BME280;27537;57.134;-2.136;2023-05-01T09:53:02;100966.19;;;9.72;100.00
41862;BME280;27537;57.134;-2.136;2023-05-01T09:55:30;100992.59;;;9.92;100.00
41862;BME280;27537;57.134;-2.136;2023-05-01T09:57:57;100989.97;;;10.20;100.00
41862;BME280;27537;57.134;-2.136;2023-05-01T10:00:24;100978.50;;;10.24;100.00
41862;BME280;27537;57.134;-2.136;2023-05-01T10:02:52;101001.72;;;10.35;100.00
41862;BME280;27537;57.134;-2.136;2023-05-01T10:05:19;100993.06;;;10.60;100.00
41862;BME280;27537;57.134;-2.136;2023-05-01T10:07:59;101017.66;;;10.56;100.00
41862;BME280;27537;57.134;-2.136;2023-05-01T10:10:28;101024.16;;;10.96;100.00
41862;BME280;27537;57.134;-2.136;2023-05-01T10:12:54;100983.19;;;10.43;100.00
41862;BME280;27537;57.134;-2.136;2023-05-01T10:15:22;100979.50;;;10.49;100.00
41862;BME280;27537;57.134;-2.136;2023-05-01T10:17:52;100975.88;;;10.24;100.00
41862;BME280;27537;57.134;-2.136;2023-05-01T10:20:20;100996.09;;;10.19;100.00
41862;BME280;27537;57.134;-2.136;2023-05-01T10:22:47;101024.31;;;10.91;100.00
41862;BME280;27537;57.134;-2.136;2023-05-01T10:25:16;100999.16;;;10.60;100.00
41862;BME280;27537;57.134;-2.136;2023-05-01T10:27:43;101053.69;;;10.74;100.00
41862;BME280;27537;57.134;-2.136;2023-05-01T10:30:10;101028.63;;;10.92;100.00
41862;BME280;27537;57.134;-2.136;2023-05-01T10:32:39;101052.13;;;10.69;100.00
41862;BME280;27537;57.134;-2.136;2023-05-01T10:35:11;101064.75;;;11.09;100.00
41862;BME280;27537;57.134;-2.136;2023-05-01T10:38:01;101082.00;;;10.63;100.00
41862;BME280;27537;57.134;-2.136;2023-05-01T10:43:19;101085.13;;;10.74;100.00
41862;BME280;27537;57.134;-2.136;2023-05-01T10:48:51;101112.78;;;10.83;100.00
41862;BME280;27537;57.134;-2.136;2023-05-01T10:51:22;101115.44;;;10.81;100.00
41862;BME280;27537;57.134;-2.136;2023-05-01T10:59:04;101128.38;;;10.59;100.00
41862;BME280;27537;57.134;-2.136;2023-05-01T11:01:35;101127.97;;;10.45;100.00
41862;BME280;27537;57.134;-2.136;2023-05-01T11:06:35;101151.19;;;10.84;100.00
41862;BME280;27537;57.134;-2.136;2023-05-01T11:12:05;101142.25;;;11.16;100.00
41862;BME280;27537;57.134;-2.136;2023-05-01T11:17:47;101156.22;;;10.62;100.00
41862;BME280;27537;57.134;-2.136;2023-05-01T11:22:52;101156.22;;;10.62;100.00
41862;BME280;27537;57.134;-2.136;2023-05-01T11:25:24;101112.13;;;10.48;100.00
41862;BME280;27537;57.134;-2.136;2023-05-01T11:27:56;101149.72;;;10.75;100.00
41862;BME280;27537;57.134;-2.136;2023-05-01T11:30:23;101109.88;;;10.64;100.00
41862;BME280;27537;57.134;-2.136;2023-05-01T11:32:51;101162.13;;;10.97;100.00
41862;BME280;27537;57.134;-2.136;2023-05-01T11:35:22;101177.44;;;11.09;100.00
41862;BME280;27537;57.134;-2.136;2023-05-01T11:37:49;101101.25;;;10.34;100.00
41862;BME280;27537;57.134;-2.136;2023-05-01T11:40:29;101147.47;;;10.63;100.00
41862;BME280;27537;57.134;-2.136;2023-05-01T11:45:30;101176.06;;;10.69;100.00
41862;BME280;27537;57.134;-2.136;2023-05-01T11:47:58;101179.63;;;10.38;100.00
41862;BME280;27537;57.134;-2.136;2023-05-01T11:50:33;101156.19;;;10.04;100.00
41862;BME280;27537;57.134;-2.136;2023-05-01T11:53:02;101174.94;;;10.50;100.00
41862;BME280;27537;57.134;-2.136;2023-05-01T11:55:30;101138.28;;;10.50;100.00
41862;BME280;27537;57.134;-2.136;2023-05-01T11:57:57;101149.41;;;10.85;100.00
41862;BME280;27537;57.134;-2.136;2023-05-01T12:00:29;101186.41;;;11.02;100.00
41862;BME280;27537;57.134;-2.136;2023-05-01T12:03:02;101164.03;;;10.63;100.00
41862;BME280;27537;57.134;-2.136;2023-05-01T12:05:33;101194.53;;;10.94;100.00
41862;BME280;27537;57.134;-2.136;2023-05-01T12:08:18;101197.44;;;11.12;100.00
41862;BME280;27537;57.134;-2.136;2023-05-01T12:10:53;101171.00;;;10.64;100.00
41862;BME280;27537;57.134;-2.136;2023-05-01T12:13:24;101182.31;;;10.65;100.00
41862;BME280;27537;57.134;-2.136;2023-05-01T12:15:53;101198.44;;;10.51;100.00
41862;BME280;27537;57.134;-2.136;2023-05-01T12:18:21;101187.84;;;10.24;100.00
41862;BME280;27537;57.134;-2.136;2023-05-01T12:20:49;101221.75;;;10.29;100.00
41862;BME280;27537;57.134;-2.136;2023-05-01T12:23:19;101205.03;;;10.03;100.00
41862;BME280;27537;57.134;-2.136;2023-05-01T12:25:46;101219.22;;;9.95;100.00
41862;BME280;27537;57.134;-2.136;2023-05-01T12:28:18;101231.22;;;10.02;100.00
41862;BME280;27537;57.134;-2.136;2023-05-01T12:30:47;101219.09;;;10.31;100.00
41862;BME280;27537;57.134;-2.136;2023-05-01T12:33:19;101227.84;;;10.31;100.00
41862;BME280;27537;57.134;-2.136;2023-05-01T12:35:48;101219.13;;;9.98;100.00
41862;BME280;27537;57.134;-2.136;2023-05-01T12:38:21;101236.84;;;10.19;100.00
41862;BME280;27537;57.134;-2.136;2023-05-01T12:43:30;101236.88;;;10.51;100.00
41862;BME280;27537;57.134;-2.136;2023-05-01T12:45:58;101247.66;;;10.40;100.00
41862;BME280;27537;57.134;-2.136;2023-05-01T12:48:25;101230.72;;;10.20;100.00
41862;BME280;27537;57.134;-2.136;2023-05-01T12:50:53;101260.88;;;10.02;100.00
41862;BME280;27537;57.134;-2.136;2023-05-01T12:53:22;101228.84;;;9.93;100.00
41862;BME280;27537;57.134;-2.136;2023-05-01T12:55:51;101258.13;;;10.07;100.00
41862;BME280;27537;57.134;-2.136;2023-05-01T12:58:18;101246.03;;;10.03;100.00
41862;BME280;27537;57.134;-2.136;2023-05-01T13:00:50;101230.38;;;10.01;100.00
41862;BME280;27537;57.134;-2.136;2023-05-01T13:03:26;101257.31;;;10.38;100.00
41862;BME280;27537;57.134;-2.136;2023-05-01T13:06:01;101263.13;;;10.48;100.00
41862;BME280;27537;57.134;-2.136;2023-05-01T13:08:30;101227.84;;;10.30;100.00
41862;BME280;27537;57.134;-2.136;2023-05-01T13:11:00;101276.88;;;10.56;100.00
41862;BME280;27537;57.134;-2.136;2023-05-01T13:13:32;101203.50;;;9.63;100.00
41862;BME280;27537;57.134;-2.136;2023-05-01T13:16:12;101283.50;;;10.38;100.00
41862;BME280;27537;57.134;-2.136;2023-05-01T13:18:47;101263.19;;;10.13;100.00
41862;BME280;27537;57.134;-2.136;2023-05-01T13:21:15;101263.72;;;10.26;100.00
41862;BME280;27537;57.134;-2.136;2023-05-01T13:24:03;101300.44;;;9.90;100.00